createdAt,value
2022-11-22T00:01:34.520Z,85.70
2022-11-22T00:04:23.336Z,83.53
2022-11-22T00:07:05.609Z,83.55
2022-11-22T00:09:54.251Z,84.28
2022-11-22T00:12:36.470Z,85.03
2022-11-22T00:15:25.342Z,84.22
2022-11-22T00:18:07.573Z,85.43
2022-11-22T00:20:57.281Z,91.05
2022-11-22T00:23:52.121Z,91.03
2022-11-22T00:26:40.561Z,94.88
2022-11-22T00:29:24.260Z,96.18
2022-11-22T00:32:06.536Z,95.43
2022-11-22T00:34:56.217Z,98.70
2022-11-22T00:37:38.446Z,96.45
2022-11-22T00:40:27.299Z,94.60
2022-11-22T00:43:15.540Z,97.32
2022-11-22T00:45:58.260Z,98.32
2022-11-22T00:48:47.659Z,102.40
2022-11-22T00:51:29.207Z,106.82
2022-11-22T00:54:18.199Z,104.45
2022-11-22T00:57:00.531Z,102.43
2022-11-22T00:59:49.221Z,100.68
2022-11-22T01:02:38.115Z,101.43
2022-11-22T01:05:26.548Z,94.68
2022-11-22T01:08:08.141Z,90.30
2022-11-22T01:10:56.636Z,85.95
2022-11-22T01:13:39.246Z,87.82
2022-11-22T01:16:21.369Z,81.75
2022-11-22T01:19:10.331Z,83.22
2022-11-22T01:22:05.052Z,83.45
2022-11-22T01:24:54.186Z,82.35
2022-11-22T01:27:36.567Z,85.65
2022-11-22T01:30:26.190Z,90.05
2022-11-22T01:33:08.477Z,90.20
2022-11-22T01:35:57.167Z,96.20
2022-11-22T01:38:39.570Z,95.28
2022-11-22T01:41:28.250Z,98.05
2022-11-22T01:44:56.283Z,93.25
2022-11-22T01:47:38.457Z,92.78
2022-11-22T01:50:31.083Z,94.47
2022-11-22T01:53:25.150Z,90.93
2022-11-22T01:56:10.528Z,87.35
2022-11-22T01:59:05.243Z,92.00
2022-11-22T02:01:55.205Z,101.05
2022-11-22T02:04:45.520Z,101.03
2022-11-22T02:07:44.351Z,99.72
2022-11-22T02:10:36.792Z,95.97
2022-11-22T02:13:21.094Z,96.03
2022-11-22T02:16:04.343Z,97.25
2022-11-22T02:18:53.235Z,96.45
2022-11-22T02:21:49.239Z,96.97
2022-11-22T02:24:58.106Z,94.70
2022-11-22T02:27:40.484Z,92.88
2022-11-22T02:30:29.267Z,91.95
2022-11-22T02:33:12.824Z,91.47
2022-11-22T02:36:01.091Z,91.57
2022-11-22T02:38:43.479Z,90.47
2022-11-22T02:41:33.101Z,90.40
2022-11-22T02:44:17.497Z,93.78
2022-11-22T02:47:06.186Z,92.53
2022-11-22T02:49:55.207Z,97.88
2022-11-22T02:52:37.551Z,97.65
2022-11-22T02:55:26.316Z,103.22
2022-11-22T02:58:08.563Z,105.18
2022-11-22T03:00:57.172Z,105.25
2022-11-22T03:03:46.227Z,103.88
2022-11-22T03:06:28.446Z,104.00
2022-11-22T03:09:17.095Z,108.25
2022-11-22T03:12:06.097Z,106.20
2022-11-22T03:14:54.595Z,105.10
2022-11-22T03:17:37.232Z,105.55
2022-11-22T03:20:25.473Z,103.23
2022-11-22T03:23:14.303Z,102.47
2022-11-22T03:25:56.494Z,101.40
2022-11-22T03:28:45.337Z,102.65
2022-11-22T03:31:27.473Z,99.15
2022-11-22T03:34:16.124Z,97.80
2022-11-22T03:36:58.456Z,89.00
2022-11-22T03:39:47.225Z,86.10
2022-11-22T03:42:29.506Z,81.78
2022-11-22T03:45:18.133Z,82.57
2022-11-22T03:48:07.245Z,79.93
2022-11-22T03:50:55.536Z,76.90
2022-11-22T03:53:37.285Z,75.00
2022-11-22T03:56:25.487Z,75.10
2022-11-22T03:59:07.104Z,69.78
2022-11-22T04:01:55.620Z,72.90
2022-11-22T04:04:38.241Z,69.13
2022-11-22T04:07:20.452Z,67.38
2022-11-22T04:10:09.236Z,66.75
2022-11-22T04:12:58.598Z,65.05
2022-11-22T04:15:40.091Z,66.18
2022-11-22T04:18:29.169Z,66.28
2022-11-22T04:21:30.013Z,64.32
2022-11-22T04:24:38.105Z,64.53
2022-11-22T04:27:27.330Z,64.20
2022-11-22T04:30:20.505Z,60.35
2022-11-22T04:35:52.489Z,54.92
2022-11-22T04:38:35.187Z,51.30
2022-11-22T04:41:23.595Z,51.47
2022-11-22T04:44:24.183Z,53.03
2022-11-22T04:47:12.533Z,53.70
2022-11-22T04:49:55.156Z,55.40
2022-11-22T04:53:03.324Z,53.80
2022-11-22T04:55:54.493Z,50.60
2022-11-22T04:58:37.183Z,52.58
2022-11-22T05:01:25.477Z,52.97
2022-11-22T05:04:07.189Z,54.40
2022-11-22T05:06:57.834Z,52.33
2022-11-22T05:09:41.111Z,54.97
2022-11-22T05:12:30.162Z,56.15
2022-11-22T05:15:12.548Z,59.03
2022-11-22T05:18:01.172Z,59.55
2022-11-22T05:20:44.535Z,58.53
2022-11-22T05:23:56.174Z,59.92
2022-11-22T05:26:48.159Z,57.78
2022-11-22T05:29:36.468Z,57.40
2022-11-22T05:32:19.211Z,56.17
2022-11-22T05:35:08.116Z,51.03
2022-11-22T05:37:57.075Z,47.78
2022-11-22T05:40:46.242Z,45.38
2022-11-22T05:43:35.360Z,45.63
2022-11-22T05:46:27.335Z,43.67
2022-11-22T05:49:10.095Z,40.88
2022-11-22T05:51:59.484Z,40.35
2022-11-22T05:54:41.306Z,39.08
2022-11-22T05:57:29.457Z,38.75
2022-11-22T06:00:13.302Z,41.17
2022-11-22T06:03:01.671Z,38.03
2022-11-22T06:05:44.326Z,38.00
2022-11-22T06:08:26.421Z,36.97
2022-11-22T06:11:45.150Z,38.03
2022-11-22T06:14:35.433Z,36.65
2022-11-22T06:17:21.145Z,34.58
2022-11-22T06:20:10.113Z,35.30
2022-11-22T06:23:00.188Z,28.80
2022-11-22T06:25:49.159Z,29.58
2022-11-22T06:28:38.468Z,27.58
2022-11-22T06:31:27.305Z,24.25
2022-11-22T06:34:16.290Z,22.33
2022-11-22T06:36:58.423Z,20.05
2022-11-22T06:39:47.246Z,19.00
2022-11-22T06:42:36.094Z,20.08
2022-11-22T06:45:19.212Z,20.50
2022-11-22T06:48:08.148Z,19.67
2022-11-22T06:50:50.632Z,20.77
2022-11-22T06:53:47.398Z,21.08
2022-11-22T06:56:32.478Z,23.95
2022-11-22T06:59:22.205Z,24.77
2022-11-22T07:02:11.297Z,23.38
2022-11-22T07:05:23.310Z,26.17
2022-11-22T07:08:07.952Z,28.05
2022-11-22T07:10:55.013Z,27.58
2022-11-22T07:13:44.232Z,27.30
2022-11-22T07:16:26.918Z,26.48
2022-11-22T07:19:16.198Z,28.90
2022-11-22T07:22:11.081Z,29.70
2022-11-22T07:25:00.252Z,23.27
2022-11-22T07:27:42.463Z,20.58
2022-11-22T07:30:31.206Z,19.83
2022-11-22T07:33:20.066Z,19.70
2022-11-22T07:36:17.329Z,20.48
2022-11-22T07:38:59.524Z,21.30
2022-11-22T07:41:48.127Z,22.27
2022-11-22T07:44:30.528Z,22.48
2022-11-22T07:47:22.888Z,22.30
2022-11-22T07:50:05.546Z,23.93
2022-11-22T07:52:54.249Z,23.02
2022-11-22T07:55:36.852Z,25.13
2022-11-22T08:01:19.593Z,25.98
2022-11-22T08:04:08.238Z,26.48
2022-11-22T08:06:50.524Z,24.25
2022-11-22T08:09:39.310Z,23.63
2022-11-22T08:12:21.463Z,23.83
2022-11-22T08:15:10.298Z,25.70
2022-11-22T08:17:52.497Z,26.73
2022-11-22T08:20:41.234Z,27.88
2022-11-22T08:23:23.520Z,27.30
2022-11-22T08:26:13.222Z,26.25
2022-11-22T08:28:55.635Z,28.42
2022-11-22T08:31:44.532Z,27.63
2022-11-22T08:34:26.482Z,24.02
2022-11-22T08:37:16.276Z,19.63
2022-11-22T08:39:58.581Z,19.33
2022-11-22T08:42:47.230Z,17.67
2022-11-22T08:45:29.584Z,16.65
2022-11-22T08:48:22.316Z,15.63
2022-11-22T08:51:08.510Z,13.45
2022-11-22T08:53:57.284Z,12.35
2022-11-22T08:56:39.500Z,12.80
2022-11-22T08:59:29.409Z,11.75
2022-11-22T09:02:12.006Z,10.05
2022-11-22T09:05:01.236Z,9.88
2022-11-22T09:10:52.239Z,10.90
2022-11-22T09:13:34.610Z,10.75
2022-11-22T09:16:30.925Z,11.27
2022-11-22T09:19:13.530Z,10.80
2022-11-22T09:22:02.145Z,12.73
2022-11-22T09:24:50.451Z,12.07
2022-11-22T09:27:33.247Z,11.77
2022-11-22T09:30:22.841Z,10.27
2022-11-22T09:33:06.199Z,10.85
2022-11-22T09:35:55.208Z,11.27
2022-11-22T09:38:39.465Z,11.70
2022-11-22T09:42:12.223Z,12.40
2022-11-22T09:45:29.171Z,10.90
2022-11-22T09:48:23.368Z,9.27
2022-11-22T09:51:22.088Z,9.75
2022-11-22T09:54:18.533Z,8.68
2022-11-22T09:57:04.190Z,9.07
2022-11-22T09:59:57.524Z,8.65
2022-11-22T10:03:00.334Z,8.80
2022-11-22T10:06:21.153Z,10.20
2022-11-22T10:09:37.100Z,8.77
2022-11-22T10:12:51.223Z,10.23
2022-11-22T10:15:46.570Z,9.55
2022-11-22T10:18:40.488Z,9.77
2022-11-22T10:21:29.506Z,10.02
2022-11-22T10:24:33.206Z,10.57
2022-11-22T10:27:23.454Z,10.48
2022-11-22T10:30:10.210Z,10.93
2022-11-22T10:33:14.445Z,9.52
2022-11-22T10:36:07.078Z,9.50
2022-11-22T10:39:23.494Z,10.60
2022-11-22T10:42:31.308Z,8.93
2022-11-22T10:45:19.163Z,9.65
2022-11-22T10:48:46.173Z,10.80
2022-11-22T10:51:56.306Z,10.70
2022-11-22T10:55:07.454Z,10.27
2022-11-22T10:58:04.234Z,10.70
2022-11-22T11:00:51.538Z,10.52
2022-11-22T11:03:48.242Z,10.70
2022-11-22T11:07:04.797Z,10.45
2022-11-22T11:10:12.119Z,10.93
2022-11-22T11:13:09.550Z,10.88
2022-11-22T11:16:06.125Z,9.80
2022-11-22T11:19:15.501Z,11.25
2022-11-22T11:22:09.170Z,10.18
2022-11-22T11:24:57.470Z,11.23
2022-11-22T11:27:40.238Z,10.43
2022-11-22T11:30:22.614Z,10.77
2022-11-22T11:33:12.087Z,11.18
2022-11-22T11:36:04.549Z,12.30
2022-11-22T11:39:03.247Z,13.18
2022-11-22T11:41:52.133Z,13.88
2022-11-22T11:44:47.093Z,15.88
2022-11-22T11:47:36.434Z,16.15
2022-11-22T11:50:54.173Z,15.10
2022-11-22T11:53:37.398Z,17.50
2022-11-22T11:56:50.224Z,16.25
2022-11-22T11:59:47.532Z,16.92
2022-11-22T12:02:48.295Z,15.85
2022-11-22T12:05:41.641Z,18.55
2022-11-22T12:08:50.114Z,19.50
2022-11-22T12:11:55.076Z,21.40
2022-11-22T12:15:09.068Z,20.02
2022-11-22T12:18:03.207Z,20.27
2022-11-22T12:21:01.570Z,19.00
2022-11-22T12:27:18.491Z,20.00
2022-11-22T12:30:01.206Z,17.52
2022-11-22T12:32:59.789Z,15.98
2022-11-22T12:35:51.234Z,17.45
2022-11-22T12:38:43.566Z,15.65
2022-11-22T12:41:35.080Z,17.63
2022-11-22T12:44:35.221Z,18.75
2022-11-22T12:47:29.492Z,18.15
2022-11-22T12:48:23.398Z,19.35
2022-11-22T12:53:30.057Z,17.80
2022-11-22T12:56:31.445Z,18.35
2022-11-22T12:59:36.660Z,17.70
2022-11-22T13:03:03.180Z,18.15
2022-11-22T13:05:55.483Z,17.33
2022-11-22T13:09:20.135Z,18.00
2022-11-22T13:12:21.235Z,18.25
2022-11-22T13:15:10.441Z,19.40
2022-11-22T13:17:53.227Z,19.45
2022-11-22T13:20:48.133Z,19.30
2022-11-22T13:24:06.130Z,19.55
2022-11-22T13:27:06.890Z,21.95
2022-11-22T13:29:51.228Z,24.80
2022-11-22T13:32:37.431Z,25.50
2022-11-22T13:35:29.247Z,24.67
2022-11-22T13:38:19.590Z,25.67
2022-11-22T13:41:08.557Z,22.98
2022-11-22T13:44:01.572Z,22.58
2022-11-22T13:47:08.214Z,22.60
2022-11-22T13:49:56.080Z,25.20
2022-11-22T13:53:05.193Z,25.48
2022-11-22T13:55:54.127Z,26.13
2022-11-22T13:58:51.300Z,26.70
2022-11-22T14:01:41.611Z,27.00
2022-11-22T14:04:33.439Z,25.85
2022-11-22T14:07:18.541Z,24.30
2022-11-22T14:10:10.259Z,24.80
2022-11-22T14:12:58.420Z,24.45
2022-11-22T14:16:06.163Z,26.10
2022-11-22T14:18:51.460Z,24.40
2022-11-22T14:22:13.165Z,24.13
2022-11-22T14:25:16.306Z,26.52
2022-11-22T14:28:43.260Z,27.30
2022-11-22T14:31:41.440Z,24.67
2022-11-22T14:34:35.199Z,25.13
2022-11-22T14:37:23.503Z,26.25
2022-11-22T14:40:18.136Z,26.38
2022-11-22T14:43:37.541Z,26.55
2022-11-22T14:46:51.864Z,28.05
2022-11-22T14:49:51.485Z,36.60
2022-11-22T14:52:38.060Z,56.83
2022-11-22T14:55:38.057Z,57.00
2022-11-22T14:58:33.516Z,46.35
2022-11-22T15:01:36.209Z,44.22
2022-11-22T15:09:10.833Z,35.80
2022-11-22T15:09:20.277Z,34.03
2022-11-22T15:11:34.274Z,33.60
2022-11-22T15:14:54.201Z,35.08
2022-11-22T16:00:02.182Z,39.55
2022-11-22T16:02:57.570Z,39.75
2022-11-22T16:06:07.200Z,39.75
2022-11-22T16:09:09.981Z,39.22
2022-11-22T16:11:53.161Z,40.72
2022-11-22T16:14:51.936Z,42.85
2022-11-22T16:17:38.157Z,40.83
2022-11-22T16:20:30.678Z,41.13
2022-11-22T16:23:27.189Z,43.13
2022-11-22T16:26:39.134Z,43.88
2022-11-22T16:29:33.890Z,43.90
2022-11-22T16:32:24.178Z,44.17
2022-11-22T16:35:28.121Z,44.00
2022-11-22T16:38:15.144Z,46.28
2022-11-22T16:41:03.701Z,46.22
2022-11-22T16:43:52.144Z,46.90
2022-11-22T16:46:41.126Z,47.92
2022-11-22T16:49:31.639Z,46.42
2022-11-22T16:52:20.121Z,45.58
2022-11-22T16:55:09.693Z,44.78
2022-11-22T16:57:52.176Z,44.67
2022-11-22T17:00:36.474Z,48.58
2022-11-22T17:03:29.131Z,47.60
2022-11-22T17:06:30.161Z,47.17
2022-11-22T17:09:12.472Z,46.88
2022-11-22T17:12:01.175Z,47.97
2022-11-22T17:14:44.285Z,46.97
2022-11-22T17:17:33.137Z,50.65
2022-11-22T17:20:16.721Z,51.30
2022-11-22T17:23:05.177Z,52.70
2022-11-22T17:25:54.592Z,53.25
2022-11-22T17:28:37.171Z,54.45
2022-11-22T17:31:28.130Z,51.85
2022-11-22T17:34:17.160Z,55.75
2022-11-22T17:37:06.606Z,52.78
2022-11-22T17:39:49.152Z,56.78
2022-11-22T17:42:41.294Z,54.38
2022-11-22T17:45:24.155Z,53.60
2022-11-22T17:48:13.791Z,54.42
2022-11-22T17:50:57.158Z,53.80
2022-11-22T17:53:40.481Z,55.60
2022-11-22T17:56:29.128Z,53.95
2022-11-22T17:59:11.471Z,55.45
2022-11-22T18:02:00.172Z,57.83
2022-11-22T18:04:43.691Z,63.33
2022-11-22T18:07:33.252Z,62.60
2022-11-22T18:10:22.560Z,58.75
2022-11-22T18:13:20.724Z,60.80
2022-11-22T18:16:15.176Z,58.00
2022-11-22T18:18:58.606Z,60.80
2022-11-22T18:21:48.116Z,63.10
2022-11-22T18:24:37.041Z,62.05
2022-11-22T18:27:26.618Z,63.65
2022-11-22T18:30:09.158Z,59.28
2022-11-22T18:32:59.118Z,61.85
2022-11-22T18:35:42.139Z,58.13
2022-11-22T18:38:31.574Z,61.88
2022-11-22T18:41:14.109Z,61.45
2022-11-22T18:44:08.592Z,63.60
2022-11-22T18:46:53.134Z,60.50
2022-11-22T18:49:42.665Z,62.53
2022-11-22T18:52:25.059Z,59.40
2022-11-22T18:55:18.764Z,62.72
2022-11-22T18:58:02.172Z,63.78
2022-11-22T19:00:54.729Z,61.63
2022-11-22T19:03:37.658Z,61.97
2022-11-22T19:06:21.047Z,61.55
2022-11-22T19:09:10.219Z,62.50
2022-11-22T19:11:58.354Z,64.57
2022-11-22T19:14:47.456Z,61.85
2022-11-22T19:17:36.424Z,63.53
2022-11-22T19:20:47.317Z,65.65
2022-11-22T19:26:30.160Z,68.18
2022-11-22T19:29:12.421Z,68.75
2022-11-22T19:32:01.238Z,69.47
2022-11-22T19:34:44.641Z,68.07
2022-11-22T19:37:33.103Z,70.07
2022-11-22T19:40:16.423Z,65.70
2022-11-22T19:43:05.094Z,66.70
2022-11-22T19:45:47.497Z,67.05
2022-11-22T19:48:36.080Z,70.18
2022-11-22T19:51:23.392Z,64.45
2022-11-22T19:54:13.107Z,64.70
2022-11-22T19:56:55.406Z,67.50
2022-11-22T19:59:44.188Z,66.53
2022-11-22T20:02:26.410Z,70.13
2022-11-22T20:05:15.135Z,71.35
2022-11-22T20:07:57.435Z,77.85
2022-11-22T20:10:48.090Z,76.43
2022-11-22T20:13:30.408Z,75.13
2022-11-22T20:16:34.586Z,78.07
2022-11-22T20:19:17.685Z,75.53
2022-11-22T20:22:06.208Z,72.53
2022-11-22T20:24:54.421Z,76.97
2022-11-22T20:27:37.077Z,78.63
2022-11-22T20:30:25.357Z,74.20
2022-11-22T20:33:07.159Z,73.00
2022-11-22T20:35:55.366Z,76.78
2022-11-22T20:38:44.106Z,75.32
2022-11-22T20:41:38.088Z,75.22
2022-11-22T20:44:24.654Z,78.13
2022-11-22T20:47:16.188Z,75.25
2022-11-22T20:49:58.354Z,73.60
2022-11-22T20:52:47.153Z,73.57
2022-11-22T20:55:29.502Z,73.70
2022-11-22T20:58:18.140Z,77.15
2022-11-22T21:01:04.404Z,74.72
2022-11-22T21:03:53.048Z,74.78
2022-11-22T21:06:43.032Z,74.63
2022-11-22T21:09:31.406Z,70.93
2022-11-22T21:12:14.934Z,70.47
2022-11-22T21:15:03.741Z,74.15
2022-11-22T21:18:09.241Z,72.28
2022-11-22T21:20:48.257Z,69.78
2022-11-22T21:23:37.196Z,67.68
2022-11-22T21:26:26.406Z,70.18
2022-11-22T21:29:15.949Z,70.90
2022-11-22T21:32:04.393Z,72.00
2022-11-22T21:34:47.151Z,70.03
2022-11-22T21:37:35.431Z,75.82
2022-11-22T21:40:19.067Z,69.60
2022-11-22T21:43:08.026Z,73.13
2022-11-22T21:45:50.748Z,68.13
2022-11-22T21:48:39.971Z,67.65
2022-11-22T21:51:23.527Z,69.88
2022-11-22T21:54:12.005Z,68.88
2022-11-22T21:56:57.301Z,68.30
2022-11-22T21:59:49.053Z,68.95
2022-11-22T22:02:31.719Z,68.55
2022-11-22T22:05:21.006Z,68.95
2022-11-22T22:08:10.055Z,66.90
2022-11-22T22:11:03.381Z,66.32
2022-11-22T22:13:46.170Z,67.20
2022-11-22T22:16:34.326Z,69.47
2022-11-22T22:19:17.860Z,65.50
2022-11-22T22:22:00.275Z,62.88
2022-11-22T22:24:49.160Z,65.82
2022-11-22T22:27:40.421Z,69.10
2022-11-22T22:30:24.119Z,66.03
2022-11-22T22:33:13.037Z,67.05
2022-11-22T22:36:05.172Z,65.93
2022-11-22T22:38:53.423Z,65.15
2022-11-22T22:41:36.176Z,64.22
2022-11-22T22:44:24.427Z,62.72
2022-11-22T22:47:07.119Z,61.05
2022-11-22T22:49:56.113Z,61.47
2022-11-22T22:52:38.358Z,60.15
2022-11-22T22:55:26.977Z,63.72
2022-11-22T22:58:20.608Z,64.07
2022-11-22T23:01:22.381Z,61.78
2022-11-22T23:04:10.062Z,60.83
2022-11-22T23:06:52.281Z,63.42
2022-11-22T23:09:41.092Z,62.20
2022-11-22T23:12:29.321Z,62.10
2022-11-22T23:15:12.019Z,65.68
2022-11-22T23:18:01.160Z,63.10
2022-11-22T23:20:43.346Z,65.32
2022-11-22T23:23:32.429Z,62.45
2022-11-22T23:26:21.402Z,61.65
2022-11-22T23:29:04.065Z,63.30
2022-11-22T23:31:53.010Z,65.80
2022-11-22T23:34:42.149Z,60.90
2022-11-22T23:37:30.389Z,62.08
2022-11-22T23:40:13.123Z,63.38
2022-11-22T23:43:04.004Z,60.72
2022-11-22T23:45:58.975Z,60.95
2022-11-22T23:48:47.406Z,59.15
2022-11-22T23:51:30.081Z,59.70
2022-11-22T23:54:12.350Z,60.63
2022-11-22T23:57:01.149Z,59.03
2022-11-22T23:59:49.419Z,56.75
